ADDS METAR Data INFO
IDs: Format: Raw Decoded Include TAF

Data at: 1548 UTC 12 Dec 2017

KODX 121453Z AUTO 27003KT 10SM CLR M03/M05 A3026 RMK AO2 SLP270 T10281050 58010
KODX 121353Z AUTO 21003KT 10SM CLR M04/M06 A3028 RMK AO2 SLP277 T10441061
KODX 121253Z AUTO 30006KT 10SM CLR M04/M06 A3028 RMK AO2 SLP279 T10391056
KODX 121153Z AUTO 26006KT 10SM SCT031 M02/M03 A3029 RMK AO2 SLP278 T10171033 10011 21017 56018
KODX 121105Z AUTO 29003KT 10SM OVC030 01/M01 A3030 RMK AO2 T00111006
KODX 121053Z AUTO 28003KT 10SM OVC028 01/M01 A3030 RMK AO2 SLP280 T00111006
KODX 120953Z AUTO 24003KT 10SM OVC027 00/M01 A3032 RMK AO2 SLP286 T00001011
KODX 120918Z AUTO 19003KT 10SM OVC028 00/M02 A3034 RMK AO2 T00001017
KODX 120853Z AUTO 15003KT 10SM OVC030 00/M02 A3035 RMK AO2 SLP295 T00001022 55006
KODX 120753Z AUTO 32005KT 10SM OVC026 00/M02 A3035 RMK AO2 SLP294 T00001017
KODX 120736Z AUTO 00000KT 10SM OVC028 01/M01 A3035 RMK AO2 T00061011
KODX 120653Z AUTO 31006KT 10SM OVC035 00/M02 A3036 RMK AO2 SLP298 T00001017
KODX 120553Z AUTO 30008KT 10SM BKN038 M01/M02 A3036 RMK AO2 SLP299 60000 T10061022 10028 21028 400941028 53008
KODX 120453Z AUTO 34006KT 10SM CLR M01/M03 A3035 RMK AO2 SLP296 T10111028
KODX 120353Z AUTO 34009KT 10SM FEW041 01/M02 A3034 RMK AO2 SLP291 T00061017
KODX 120253Z AUTO 34011G17KT 10SM FEW021 OVC041 02/00 A3034 RMK AO2 SLP289 60000 T00220000 51009
KODX 120217Z AUTO 35009KT 10SM BKN019 BKN029 OVC035 02/01 A3034 RMK AO2 T00220006
KODX 120153Z AUTO 34012G20KT 10SM FEW023 OVC030 03/01 A3033 RMK AO2 PK WND 34026/0058 RAE31SNB0055E06 SLP286 P0000 T00280006
KODX 120151Z AUTO 35011G21KT 10SM OVC030 03/01 A3033 RMK AO2 PK WND 34026/0058 RAE31SNB0055E06 P0000
KODX 120053Z AUTO 35018G28KT 7SM -RA BKN021 OVC035 03/00 A3031 RMK AO2 PK WND 33031/2356 RAB50 SLP279 P0000 T00280000
KODX 112353Z AUTO 33019G29KT 10SM FEW027 BKN036 03/M01 A3029 RMK AO2 PK WND 33031/2326 SLP269 60000 T00331011 10078 20033 51019
KODX 112348Z AUTO 33021G29KT 10SM SCT027 BKN036 03/M01 A3028 RMK AO2 PK WND 33031/2326
KODX 112322Z AUTO 33017KT 10SM BKN027 OVC035 04/M01 A3027 RMK AO2 PK WND 33030/2305 T00391011
KODX 112253Z AUTO 34020G27KT 10SM OVC031 04/M02 A3026 RMK AO2 PK WND 33033/2228 SLP260 T00441017
KODX 112205Z AUTO 34021G30KT 10SM OVC031 05/M02 A3023 RMK AO2 PK WND 33031/2155 T00501017
KODX 112153Z AUTO 34024G34KT 10SM OVC029 05/M02 A3023 RMK AO2 PK WND 33037/2057 SLP247 T00501017
KODX 112148Z AUTO 34026G34KT 10SM OVC029 05/M02 A3022 RMK AO2 PK WND 33037/2057
KODX 112053Z AUTO 34026G35KT 10SM OVC035 05/M02 A3019 RMK AO2 PK WND 33038/2033 SLP240 60000 T00501022 53022
KODX 111953Z AUTO 33023G40KT 10SM BKN030 OVC049 06/M01 A3016 RMK AO2 PK WND 34040/1947 RAB20E29 SLP229 P0000 T00561011
KODX 111853Z AUTO 33028G41KT 10SM BKN040 OVC048 07/M02 A3014 RMK AO2 PK WND 33045/1809 SLP221 T00671022
KODX 111753Z AUTO 33031G47KT 10SM OVC048 08/M03 A3012 RMK AO2 PK WND 33047/1744 SLP215 T00781033 10089 20072 51019
KODX 111653Z AUTO 33028G43KT 10SM BKN050 08/M03 A3011 RMK AO2 PK WND 34047/1607 SLP210 T00831033
KODX 111553Z AUTO 33032G43KT 10SM CLR 07/M04 A3009 RMK AO2 PK WND 35047/1534 SLP203 T00721039
KODX 111453Z AUTO 33021G27KT 10SM CLR 07/M08 A3007 RMK AO2 PK WND 32027/1452 SLP193 T00721078 53013
KODX 111353Z AUTO 32014KT 10SM CLR 08/M09 A3004 RMK AO2 PK WND 31034/1327 SLP183 T00781089
KODX 111253Z AUTO 29017G27KT 10SM CLR 08/M09 A3002 RMK AO2 PK WND 29027/1252 SLP175 T00831094
KODX 111153Z AUTO 30016G24KT 10SM CLR 08/M09 A3003 RMK AO2 PK WND 30026/1104 SLP176 T00831089 10094 20000 58003
KODX 111053Z AUTO 30016G24KT 10SM CLR 08/M08 A3003 RMK AO2 PK WND 31027/0957 SLP176 T00831083
KODX 110953Z AUTO 31021G30KT 10SM CLR 09/M09 A3003 RMK AO2 PK WND 31030/0948 SLP172 T00941094
KODX 110853Z AUTO 31008KT 10SM CLR 02/M09 A3004 RMK AO2 SLP177 T00221094 55005
KODX 110753Z AUTO 34005KT 10SM CLR 01/M09 A3004 RMK AO2 SLP179 T00061089
KODX 110653Z AUTO 33009KT 10SM CLR 02/M09 A3004 RMK AO2 SLP180 T00221094
KODX 110553Z AUTO 30004KT 10SM CLR 02/M09 A3005 RMK AO2 SLP185 T00221094 10089 21006 401781006 56013
KODX 110453Z AUTO 33006KT 10SM CLR 01/M10 A3006 RMK AO2 SLP192 T00061100
KODX 110353Z AUTO 32005KT 10SM CLR 02/M11 A3008 RMK AO2 SLP198 T00221106